Time;durP1;ratioP1;P1;durP2;ratioP2;P2;SDS_P1;SDS_P2;PMS_P1;PMS_P2;Temp;Humidity;BMP_temperature;BMP_pressure;BME280_temperature;BME280_humidity;BME280_pressure;Samples;Min_cycle;Max_cycle;Signal;HPM_P1;HPM_P2
2022/12/09 00:00:33;;;;;;;16.03;14.07;;;0.60;1.00;;;;;;6187191;28;20240;-52
2022/12/09 00:03:38;;;;;;;15.40;13.80;;;0.40;1.00;;;;;;6186831;28;20427;-52
2022/12/09 00:06:41;;;;;;;18.03;14.50;;;0.40;1.00;;;;;;6188911;28;20721;-53
2022/12/09 00:09:44;;;;;;;17.13;14.80;;;0.50;1.00;;;;;;6209095;28;20238;-52
2022/12/09 00:12:47;;;;;;;19.93;16.03;;;0.50;1.00;;;;;;6217736;28;20494;-52
2022/12/09 00:15:50;;;;;;;20.90;16.23;;;0.60;1.00;;;;;;6210683;28;20279;-52
2022/12/09 00:18:56;;;;;;;20.37;17.60;;;0.60;1.00;;;;;;6195579;28;20279;-51
2022/12/09 00:21:59;;;;;;;22.33;17.60;;;0.60;1.00;;;;;;6187314;28;20722;-52
2022/12/09 00:25:02;;;;;;;21.60;16.90;;;0.50;1.00;;;;;;6186707;28;20236;-52
2022/12/09 00:28:05;;;;;;;18.40;16.50;;;0.50;1.00;;;;;;6186323;28;20247;-52
2022/12/09 00:31:10;;;;;;;18.03;15.50;;;0.50;1.00;;;;;;6186290;28;20232;-52
2022/12/09 00:34:14;;;;;;;17.30;15.17;;;0.50;1.00;;;;;;6186814;28;20243;-52
2022/12/09 00:37:17;;;;;;;19.90;15.57;;;0.30;1.00;;;;;;6209078;28;20238;-52
2022/12/09 00:40:21;;;;;;;20.00;16.53;;;0.40;1.00;;;;;;6202017;28;20604;-51
2022/12/09 00:43:24;;;;;;;19.20;16.03;;;0.40;1.00;;;;;;6215019;28;20232;-52
2022/12/09 00:46:27;;;;;;;17.73;15.93;;;0.40;1.00;;;;;;6210607;28;20749;-51
2022/12/09 00:49:32;;;;;;;20.10;16.97;;;0.30;1.00;;;;;;6190367;28;20313;-52
2022/12/09 00:52:35;;;;;;;18.43;16.33;;;0.20;1.00;;;;;;6186738;28;20833;-51
2022/12/09 00:55:38;;;;;;;19.03;16.20;;;0.30;1.00;;;;;;6185656;28;20738;-52
2022/12/09 00:58:41;;;;;;;21.93;17.53;;;0.20;1.00;;;;;;6185166;28;20583;-52
2022/12/09 01:01:44;;;;;;;26.73;19.30;;;0.30;1.00;;;;;;6199323;28;20714;-52
2022/12/09 01:04:51;;;;;;;23.57;18.03;;;0.20;1.00;;;;;;6211665;28;20553;-55
2022/12/09 01:07:55;;;;;;;23.97;20.07;;;0.30;1.00;;;;;;6199460;28;20250;-52
2022/12/09 01:10:58;;;;;;;27.13;20.27;;;0.20;1.00;;;;;;6216541;28;20393;-51
2022/12/09 01:14:03;;;;;;;23.37;18.80;;;0.20;1.00;;;;;;6201081;28;20231;-52
2022/12/09 01:17:06;;;;;;;25.53;20.00;;;0.30;1.00;;;;;;6188387;28;20244;-52
2022/12/09 01:20:11;;;;;;;25.10;19.57;;;0.30;1.00;;;;;;6185464;28;20917;-52
2022/12/09 01:23:14;;;;;;;23.67;18.20;;;0.30;1.00;;;;;;6185224;28;20722;-51
2022/12/09 01:26:17;;;;;;;21.40;17.43;;;0.20;1.00;;;;;;6185017;28;20792;-53
2022/12/09 01:29:20;;;;;;;23.70;18.83;;;0.20;1.00;;;;;;6185244;28;20232;-52
2022/12/09 01:32:23;;;;;;;25.00;19.70;;;0.20;1.00;;;;;;6185568;28;20236;-52
2022/12/09 01:35:28;;;;;;;24.03;18.73;;;0.20;1.00;;;;;;6195205;28;20302;-51
2022/12/09 01:38:31;;;;;;;20.47;18.27;;;0.00;1.00;;;;;;6201275;28;20266;-51
2022/12/09 01:41:34;;;;;;;23.03;18.13;;;0.00;1.00;;;;;;6209545;28;20243;-51
2022/12/09 01:44:37;;;;;;;26.00;19.03;;;0.20;1.00;;;;;;6209457;28;20845;-52
2022/12/09 01:47:41;;;;;;;22.47;17.40;;;0.30;1.00;;;;;;6206840;28;20235;-52
2022/12/09 01:50:50;;;;;;;21.63;17.93;;;0.00;1.00;;;;;;6184416;28;20247;-51
2022/12/09 01:53:53;;;;;;;22.43;17.70;;;0.10;1.00;;;;;;6185087;28;20244;-52
2022/12/09 01:56:56;;;;;;;20.67;17.23;;;0.00;1.00;;;;;;6184237;28;20244;-51
2022/12/09 02:00:00;;;;;;;20.83;16.87;;;0.00;1.00;;;;;;6184379;28;20250;-51
2022/12/09 02:03:03;;;;;;;21.80;18.20;;;0.00;1.00;;;;;;6184904;28;20244;-51
2022/12/09 02:06:08;;;;;;;25.57;18.60;;;0.00;1.00;;;;;;6184088;28;20374;-52
2022/12/09 02:09:11;;;;;;;25.37;18.27;;;0.00;1.00;;;;;;6201695;28;20560;-52
2022/12/09 02:12:19;;;;;;;20.87;17.53;;;-0.20;1.00;;;;;;6216231;28;20446;-52
2022/12/09 02:15:26;;;;;;;21.93;17.40;;;0.00;1.00;;;;;;6196969;28;20745;-51
2022/12/09 02:18:38;;;;;;;24.30;18.57;;;0.00;1.00;;;;;;6184495;28;20479;-51
2022/12/09 02:21:48;;;;;;;23.30;17.97;;;-0.10;1.00;;;;;;6184525;28;20322;-51
2022/12/09 02:24:58;;;;;;;24.27;19.33;;;0.00;1.00;;;;;;6185263;28;20243;-51
2022/12/09 02:28:36;;;;;;;27.33;19.63;;;0.10;1.00;;;;;;6189068;28;20256;-51
2022/12/09 02:32:09;;;;;;;31.67;21.30;;;0.00;1.00;;;;;;6188780;28;20655;-51
2022/12/09 02:35:20;;;;;;;26.50;19.73;;;0.20;1.00;;;;;;6188365;28;20240;-51
2022/12/09 02:38:27;;;;;;;24.03;18.33;;;0.30;1.00;;;;;;6207526;28;20346;-51
2022/12/09 02:41:34;;;;;;;23.47;17.93;;;0.50;1.00;;;;;;6219719;28;20740;-52
2022/12/09 02:44:39;;;;;;;25.40;19.10;;;0.40;1.00;;;;;;6208631;28;20323;-51
2022/12/09 02:47:46;;;;;;;23.97;19.30;;;0.40;1.00;;;;;;6188581;28;20732;-52
2022/12/09 02:50:52;;;;;;;22.23;18.27;;;0.40;1.00;;;;;;6188783;28;20236;-52
2022/12/09 02:53:59;;;;;;;23.27;17.93;;;0.40;1.00;;;;;;6188352;28;20710;-51
2022/12/09 02:57:07;;;;;;;23.80;19.57;;;0.30;1.00;;;;;;6188303;28;20272;-52
2022/12/09 03:00:15;;;;;;;23.73;18.80;;;0.50;1.00;;;;;;6188351;28;20319;-52
2022/12/09 03:03:18;;;;;;;25.70;19.47;;;0.30;1.00;;;;;;6188497;28;20247;-51
2022/12/09 03:06:28;;;;;;;28.73;21.13;;;0.60;1.00;;;;;;6187310;28;20260;-52
2022/12/09 03:09:36;;;;;;;28.20;20.43;;;0.50;1.00;;;;;;6208461;28;20246;-53
2022/12/09 03:12:41;;;;;;;28.37;21.37;;;0.40;1.00;;;;;;6218953;28;20231;-51
2022/12/09 03:15:49;;;;;;;29.90;20.70;;;0.50;1.00;;;;;;6200353;28;20374;-51
2022/12/09 03:18:57;;;;;;;29.53;20.27;;;0.60;1.00;;;;;;6211738;28;20246;-52
2022/12/09 03:22:05;;;;;;;26.73;19.30;;;0.60;1.00;;;;;;6212218;28;20235;-51
2022/12/09 03:25:14;;;;;;;30.13;21.50;;;0.60;1.00;;;;;;6200551;28;20312;-52
2022/12/09 03:28:21;;;;;;;27.83;20.93;;;0.70;1.00;;;;;;6205453;28;20741;-51
2022/12/09 03:31:28;;;;;;;26.93;18.97;;;0.50;1.00;;;;;;6211767;28;20294;-51
2022/12/09 03:34:35;;;;;;;26.03;17.97;;;0.60;1.00;;;;;;6191900;28;20232;-52
2022/12/09 03:37:41;;;;;;;25.27;19.20;;;0.80;1.00;;;;;;6206678;28;20246;-53
2022/12/09 03:40:49;;;;;;;22.93;18.37;;;0.70;1.00;;;;;;6214189;28;20249;-52
2022/12/09 03:43:55;;;;;;;25.23;18.97;;;0.80;1.00;;;;;;6212716;28;20258;-52
2022/12/09 03:46:59;;;;;;;23.87;17.67;;;0.70;1.00;;;;;;6202793;28;20236;-52
2022/12/09 03:50:02;;;;;;;23.60;18.47;;;0.60;1.00;;;;;;6186916;28;20243;-51
2022/12/09 03:53:13;;;;;;;21.63;17.67;;;0.80;1.00;;;;;;6187524;28;20397;-51
2022/12/09 03:56:22;;;;;;;28.30;19.23;;;0.90;1.00;;;;;;6187069;28;20599;-52
2022/12/09 03:59:29;;;;;;;23.33;18.57;;;0.70;1.00;;;;;;6186826;28;20236;-52
2022/12/09 04:02:31;;;;;;;25.63;19.63;;;0.60;1.00;;;;;;6186928;28;20231;-52
2022/12/09 04:05:35;;;;;;;23.70;19.10;;;0.70;1.00;;;;;;6186568;28;20400;-51
2022/12/09 04:08:39;;;;;;;29.60;20.07;;;0.80;1.00;;;;;;6204672;28;20239;-51
2022/12/09 04:11:42;;;;;;;24.10;19.33;;;0.80;1.00;;;;;;6218044;28;20317;-52
2022/12/09 04:14:45;;;;;;;25.80;19.73;;;0.80;1.00;;;;;;6207632;28;20243;-52
2022/12/09 04:17:48;;;;;;;27.80;20.53;;;0.70;1.00;;;;;;6196254;28;20235;-51
2022/12/09 04:20:52;;;;;;;30.00;20.90;;;0.60;1.00;;;;;;6192943;28;20607;-51
2022/12/09 04:23:56;;;;;;;27.20;19.50;;;0.90;1.00;;;;;;6195687;28;20232;-51
2022/12/09 04:26:59;;;;;;;28.87;22.07;;;0.80;1.00;;;;;;6190233;28;20248;-51
2022/12/09 04:30:03;;;;;;;25.47;20.10;;;0.90;1.00;;;;;;6190071;28;20236;-52
2022/12/09 04:33:07;;;;;;;26.40;19.67;;;0.80;1.00;;;;;;6190365;28;20322;-51
2022/12/09 04:36:13;;;;;;;28.90;21.27;;;0.60;1.00;;;;;;6195675;28;20962;-52
2022/12/09 04:39:18;;;;;;;30.07;21.53;;;0.80;1.00;;;;;;6208992;28;20239;-54
2022/12/09 04:42:21;;;;;;;29.77;20.87;;;0.70;1.00;;;;;;6209798;28;20239;-52
2022/12/09 04:45:24;;;;;;;26.20;19.77;;;0.80;1.00;;;;;;6212584;28;20709;-52
2022/12/09 04:48:27;;;;;;;31.77;22.63;;;0.90;1.00;;;;;;6207387;28;20248;-52
2022/12/09 04:51:31;;;;;;;26.03;19.83;;;0.70;1.00;;;;;;6209466;28;20239;-52
2022/12/09 04:54:43;;;;;;;25.60;19.73;;;0.70;1.00;;;;;;6212232;28;20643;-52
2022/12/09 04:57:45;;;;;;;25.97;19.90;;;1.00;1.00;;;;;;6209559;28;20615;-52
2022/12/09 05:00:49;;;;;;;26.10;19.40;;;0.90;1.00;;;;;;6208010;28;20374;-51
2022/12/09 05:03:53;;;;;;;28.83;20.50;;;0.80;1.00;;;;;;6201079;28;20234;-46
2022/12/09 05:06:57;;;;;;;26.37;19.80;;;1.00;1.00;;;;;;6206169;28;20243;-50
2022/12/09 05:10:02;;;;;;;30.07;20.73;;;0.90;1.00;;;;;;6206717;28;20394;-53
2022/12/09 05:13:05;;;;;;;32.30;21.30;;;0.90;1.00;;;;;;6209256;28;20247;-51
2022/12/09 05:16:10;;;;;;;25.70;18.80;;;0.90;1.00;;;;;;6207628;28;20258;-51
2022/12/09 05:19:18;;;;;;;24.80;18.93;;;0.80;1.00;;;;;;6208294;28;20302;-52
2022/12/09 05:22:22;;;;;;;26.40;19.87;;;0.80;1.00;;;;;;6214228;28;20239;-51
2022/12/09 05:25:26;;;;;;;24.83;17.27;;;0.80;1.00;;;;;;6208341;28;20728;-51
2022/12/09 05:28:30;;;;;;;25.20;18.53;;;0.70;1.00;;;;;;6202818;28;20263;-52
2022/12/09 05:31:33;;;;;;;25.20;17.87;;;0.80;1.00;;;;;;6214395;28;20251;-52
2022/12/09 05:34:37;;;;;;;19.23;16.93;;;0.80;1.00;;;;;;6192110;28;20325;-59
2022/12/09 05:37:40;;;;;;;21.47;17.03;;;0.70;1.00;;;;;;6198229;28;20250;-52
2022/12/09 05:40:44;;;;;;;25.53;19.17;;;0.70;1.00;;;;;;6216784;28;20253;-52
2022/12/09 05:43:48;;;;;;;27.10;19.03;;;0.60;1.00;;;;;;6199130;28;20232;-52
2022/12/09 05:46:51;;;;;;;22.03;17.30;;;0.70;1.00;;;;;;6207628;28;20720;-52
2022/12/09 05:49:54;;;;;;;20.67;16.80;;;0.50;1.00;;;;;;6198890;28;20239;-52
2022/12/09 05:52:58;;;;;;;22.93;17.90;;;0.60;1.00;;;;;;6212602;28;20464;-51
2022/12/09 05:56:02;;;;;;;21.50;17.00;;;0.60;1.00;;;;;;6206366;28;20235;-51
2022/12/09 05:59:06;;;;;;;26.47;20.10;;;0.40;1.00;;;;;;6206277;28;20541;-52
2022/12/09 06:02:09;;;;;;;22.33;18.67;;;0.50;1.00;;;;;;6209633;28;20578;-52
2022/12/09 06:05:13;;;;;;;27.00;20.87;;;0.50;1.00;;;;;;6212487;28;20241;-51
2022/12/09 06:08:16;;;;;;;24.63;18.63;;;0.50;1.00;;;;;;6207206;28;20351;-52
2022/12/09 06:11:21;;;;;;;28.57;21.60;;;0.60;1.00;;;;;;6208232;28;20231;-52
2022/12/09 06:14:25;;;;;;;24.23;19.60;;;0.60;1.00;;;;;;6207611;28;20425;-52
2022/12/09 06:17:28;;;;;;;30.33;23.07;;;0.70;1.00;;;;;;6207031;28;21593;-51
2022/12/09 06:20:32;;;;;;;32.50;23.57;;;0.80;1.00;;;;;;6208370;28;20391;-51
2022/12/09 06:23:35;;;;;;;30.73;21.97;;;0.70;1.00;;;;;;6219286;28;20744;-52
2022/12/09 06:26:40;;;;;;;27.13;19.90;;;0.60;1.00;;;;;;6218867;28;20243;-52
2022/12/09 06:29:43;;;;;;;25.37;18.73;;;0.60;1.00;;;;;;6214689;28;20268;-52
2022/12/09 06:32:46;;;;;;;28.30;19.90;;;0.70;1.00;;;;;;6218182;28;20234;-51
2022/12/09 06:35:50;;;;;;;24.47;19.23;;;0.40;1.00;;;;;;6216068;28;20231;-53
2022/12/09 06:38:53;;;;;;;25.70;19.03;;;0.70;1.00;;;;;;6187948;28;20243;-51
2022/12/09 06:41:58;;;;;;;25.50;18.70;;;0.70;1.00;;;;;;6211262;28;20243;-51
2022/12/09 06:45:01;;;;;;;26.90;18.33;;;0.60;1.00;;;;;;6211167;28;20675;-52
2022/12/09 06:48:05;;;;;;;27.30;18.53;;;0.60;1.00;;;;;;6208172;28;20270;-51
2022/12/09 06:51:09;;;;;;;32.27;20.23;;;0.60;1.00;;;;;;6215255;28;20258;-51
2022/12/09 06:54:12;;;;;;;23.70;17.20;;;0.70;1.00;;;;;;6210429;28;20235;-52
2022/12/09 06:57:17;;;;;;;31.47;20.70;;;0.70;1.00;;;;;;6210258;28;21014;-51
2022/12/09 07:00:21;;;;;;;32.37;19.40;;;0.70;1.00;;;;;;6216005;28;20839;-50
2022/12/09 07:03:23;;;;;;;34.87;20.23;;;0.70;1.00;;;;;;6213394;28;20329;-58
2022/12/09 07:06:29;;;;;;;29.43;18.93;;;0.70;1.00;;;;;;6209714;28;20228;-51
2022/12/09 07:09:33;;;;;;;33.97;21.00;;;0.70;1.00;;;;;;6211819;28;20639;-50
2022/12/09 07:12:37;;;;;;;34.03;20.53;;;0.70;1.00;;;;;;6209730;28;20235;-51
2022/12/09 07:15:41;;;;;;;29.53;19.70;;;0.60;1.00;;;;;;6211161;28;20233;-52
2022/12/09 07:18:44;;;;;;;33.17;22.00;;;0.90;1.00;;;;;;6211970;28;20231;-53
2022/12/09 07:21:48;;;;;;;34.07;21.97;;;0.80;1.00;;;;;;6219464;28;20318;-52
2022/12/09 07:24:52;;;;;;;35.83;23.17;;;0.70;1.00;;;;;;6215964;28;20239;-51
2022/12/09 07:27:56;;;;;;;29.63;20.30;;;0.80;1.00;;;;;;6208475;28;20250;-52
2022/12/09 07:31:00;;;;;;;34.73;22.57;;;0.80;1.00;;;;;;6219951;28;20723;-51
2022/12/09 07:34:04;;;;;;;34.57;22.43;;;0.90;1.00;;;;;;6204628;28;20379;-51
2022/12/09 07:37:08;;;;;;;33.63;22.20;;;0.60;1.00;;;;;;6211970;28;20278;-52
2022/12/09 07:40:12;;;;;;;36.70;21.67;;;1.10;1.00;;;;;;6214368;28;20329;-52
2022/12/09 07:43:16;;;;;;;34.07;20.83;;;0.90;1.00;;;;;;6217242;28;20236;-51
2022/12/09 07:46:21;;;;;;;36.80;21.90;;;1.00;1.00;;;;;;6215170;28;20246;-52
2022/12/09 07:49:24;;;;;;;36.47;23.03;;;1.00;1.00;;;;;;6212854;28;20659;-53
2022/12/09 07:52:28;;;;;;;38.27;22.80;;;1.10;1.00;;;;;;6208453;28;20232;-51
2022/12/09 07:55:31;;;;;;;42.20;24.00;;;0.80;1.00;;;;;;6209652;28;20234;-51
2022/12/09 07:58:35;;;;;;;34.30;22.10;;;0.90;1.00;;;;;;6210930;28;20404;-50
2022/12/09 08:01:39;;;;;;;38.40;26.00;;;1.10;1.00;;;;;;6208513;28;20739;-51
2022/12/09 08:04:42;;;;;;;46.57;26.67;;;1.10;1.00;;;;;;6234966;28;20258;-53
2022/12/09 08:07:45;;;;;;;40.13;27.30;;;1.00;1.00;;;;;;6230888;28;20374;-52
2022/12/09 08:10:49;;;;;;;41.57;26.73;;;1.00;1.00;;;;;;6232227;28;20645;-51
2022/12/09 08:13:56;;;;;;;39.80;25.50;;;1.10;1.00;;;;;;6235320;28;20246;-51
2022/12/09 08:16:59;;;;;;;42.43;26.57;;;1.00;1.00;;;;;;6232217;28;20520;-51
2022/12/09 08:20:03;;;;;;;42.93;26.10;;;1.20;1.00;;;;;;6241610;28;20245;-52
2022/12/09 08:23:07;;;;;;;43.73;25.87;;;1.10;1.00;;;;;;6247003;28;20580;-52
2022/12/09 08:26:12;;;;;;;48.30;26.20;;;0.80;1.00;;;;;;6230112;28;20243;-52
2022/12/09 08:29:16;;;;;;;46.00;27.63;;;1.00;1.00;;;;;;6234611;28;20776;-52
2022/12/09 08:32:20;;;;;;;37.67;25.30;;;0.90;1.00;;;;;;6234522;28;20234;-50
2022/12/09 08:35:23;;;;;;;42.43;25.93;;;1.10;1.00;;;;;;6233724;28;20881;-52
2022/12/09 08:38:26;;;;;;;43.97;26.10;;;0.90;1.00;;;;;;6232339;28;20633;-53
2022/12/09 08:41:37;;;;;;;42.77;25.57;;;1.10;1.00;;;;;;6234346;28;20234;-51
2022/12/09 08:44:43;;;;;;;43.47;25.83;;;0.90;1.00;;;;;;6231542;28;20799;-51
2022/12/09 08:47:46;;;;;;;47.57;24.93;;;1.00;1.00;;;;;;6225618;28;20234;-51
2022/12/09 08:50:50;;;;;;;40.33;25.37;;;1.20;1.00;;;;;;6236218;28;20326;-51
2022/12/09 08:53:53;;;;;;;39.33;23.27;;;1.00;1.00;;;;;;6236312;28;20243;-51
2022/12/09 08:56:56;;;;;;;46.73;26.07;;;1.20;1.00;;;;;;6234089;28;20685;-52
2022/12/09 09:00:01;;;;;;;43.70;25.00;;;1.20;1.00;;;;;;6232838;28;20230;-54
2022/12/09 09:03:04;;;;;;;45.10;25.87;;;1.00;1.00;;;;;;6233473;28;20640;-51
2022/12/09 09:06:07;;;;;;;50.80;26.97;;;1.10;1.00;;;;;;6224974;28;20643;-52
2022/12/09 09:09:14;;;;;;;43.30;24.67;;;1.10;1.00;;;;;;6242638;28;20610;-52
2022/12/09 09:12:17;;;;;;;48.10;25.47;;;1.10;1.00;;;;;;6226512;28;20242;-51
2022/12/09 09:15:22;;;;;;;44.43;25.30;;;1.10;1.00;;;;;;6235405;28;20242;-51
2022/12/09 09:18:25;;;;;;;45.00;24.57;;;1.40;1.00;;;;;;6232993;28;20329;-52
2022/12/09 09:21:28;;;;;;;46.80;26.03;;;1.30;1.00;;;;;;6230378;28;20231;-52
2022/12/09 09:24:32;;;;;;;47.63;25.37;;;1.10;1.00;;;;;;6237463;28;20689;-53
2022/12/09 09:27:35;;;;;;;49.17;27.27;;;1.30;1.00;;;;;;6230666;28;20470;-50
2022/12/09 09:30:39;;;;;;;49.70;26.43;;;1.10;1.00;;;;;;6219389;28;20324;-51
2022/12/09 09:33:44;;;;;;;47.17;26.67;;;1.20;1.00;;;;;;6217343;28;20236;-50
2022/12/09 09:36:47;;;;;;;47.50;27.03;;;1.30;1.00;;;;;;6210120;28;20235;-51
2022/12/09 09:39:51;;;;;;;50.10;26.30;;;1.40;1.00;;;;;;6216029;28;20441;-54
2022/12/09 09:42:55;;;;;;;43.10;26.07;;;1.40;1.00;;;;;;6236975;28;20234;-51
2022/12/09 09:46:00;;;;;;;43.93;25.97;;;1.20;1.00;;;;;;6244168;28;20242;-51
2022/12/09 09:49:07;;;;;;;46.03;26.70;;;1.40;1.00;;;;;;6237782;28;20331;-51
2022/12/09 09:52:16;;;;;;;50.80;26.80;;;1.20;1.00;;;;;;6232859;28;20249;-51
2022/12/09 09:55:28;;;;;;;40.83;25.53;;;1.30;1.00;;;;;;6229774;28;20233;-51
2022/12/09 09:58:38;;;;;;;41.20;25.53;;;1.40;1.00;;;;;;6213896;28;20234;-51
2022/12/09 10:01:50;;;;;;;42.50;25.70;;;1.20;1.00;;;;;;6214224;28;20227;-52
2022/12/09 10:05:04;;;;;;;41.23;26.00;;;1.40;1.00;;;;;;6218577;28;20508;-51
2022/12/09 10:08:24;;;;;;;43.17;25.30;;;1.50;1.00;;;;;;6209964;28;20329;-51
2022/12/09 10:11:37;;;;;;;46.33;25.43;;;1.40;1.00;;;;;;6227557;28;20481;-51
2022/12/09 10:14:47;;;;;;;47.77;26.80;;;1.70;1.00;;;;;;6229553;28;20728;-52
2022/12/09 10:17:54;;;;;;;45.20;25.87;;;1.90;1.00;;;;;;6235955;28;20239;-52
2022/12/09 10:20:58;;;;;;;46.80;26.63;;;1.80;1.00;;;;;;6232650;28;20263;-52
2022/12/09 10:24:17;;;;;;;50.00;26.03;;;1.80;1.00;;;;;;6231223;28;20779;-52
2022/12/09 10:27:29;;;;;;;44.83;26.63;;;1.70;1.00;;;;;;6211384;28;20378;-52
2022/12/09 10:30:32;;;;;;;47.97;26.17;;;2.00;1.00;;;;;;6215896;28;20600;-52
2022/12/09 10:33:48;;;;;;;44.17;25.73;;;1.90;1.00;;;;;;6209998;28;20314;-51
2022/12/09 10:36:52;;;;;;;45.80;24.97;;;2.00;1.00;;;;;;6209223;28;20246;-52
2022/12/09 10:40:01;;;;;;;48.40;27.57;;;2.10;1.00;;;;;;6217025;28;20337;-51
2022/12/09 10:43:36;;;;;;;43.60;27.83;;;1.80;1.00;;;;;;6234420;28;20328;-51
2022/12/09 10:46:41;;;;;;;47.20;26.83;;;1.80;1.00;;;;;;6214975;28;20648;-53
2022/12/09 10:49:48;;;;;;;46.47;27.90;;;1.70;1.00;;;;;;6232637;28;20237;-51
2022/12/09 10:52:51;;;;;;;43.57;26.70;;;1.80;1.00;;;;;;6236595;28;20227;-56
2022/12/09 10:55:56;;;;;;;55.40;27.60;;;1.70;1.00;;;;;;6232724;28;20376;-52
2022/12/09 10:59:10;;;;;;;49.17;28.37;;;1.80;1.00;;;;;;6236359;28;20482;-52
2022/12/09 11:02:20;;;;;;;39.30;24.60;;;1.70;1.00;;;;;;6233264;28;20238;-52
2022/12/09 11:05:28;;;;;;;46.33;26.03;;;1.60;1.00;;;;;;6217299;28;20243;-53
2022/12/09 11:08:33;;;;;;;42.23;24.27;;;1.50;1.00;;;;;;6215638;28;21012;-52
2022/12/09 11:11:42;;;;;;;46.30;26.53;;;1.50;1.00;;;;;;6217082;28;20603;-52
2022/12/09 11:14:51;;;;;;;42.73;25.43;;;1.40;1.00;;;;;;6206470;28;20235;-51
2022/12/09 11:17:58;;;;;;;49.30;26.33;;;1.50;1.00;;;;;;6229104;28;20477;-52
2022/12/09 11:21:05;;;;;;;48.17;27.83;;;1.80;1.00;;;;;;6235502;28;20292;-53
2022/12/09 11:24:20;;;;;;;40.13;26.13;;;1.50;1.00;;;;;;6236841;28;20517;-52
2022/12/09 11:27:30;;;;;;;38.00;24.50;;;1.50;1.00;;;;;;6242066;28;20243;-51
2022/12/09 11:30:36;;;;;;;47.17;25.43;;;1.90;1.00;;;;;;6232819;28;20231;-52
2022/12/09 11:33:56;;;;;;;40.90;23.17;;;1.70;1.00;;;;;;6239827;28;21272;-52
2022/12/09 11:37:02;;;;;;;43.60;23.97;;;1.70;1.00;;;;;;6234801;28;20261;-53
2022/12/09 11:40:13;;;;;;;38.70;23.97;;;1.70;1.00;;;;;;6235238;28;20238;-52
2022/12/09 11:43:16;;;;;;;39.03;24.47;;;1.70;1.00;;;;;;6238236;28;20705;-52
2022/12/09 11:46:23;;;;;;;40.40;25.73;;;1.70;1.00;;;;;;6235000;28;20234;-51
2022/12/09 11:49:28;;;;;;;43.20;27.57;;;1.70;1.00;;;;;;6234890;28;20234;-52
2022/12/09 11:52:33;;;;;;;40.13;26.13;;;1.70;1.00;;;;;;6225624;28;20333;-52
2022/12/09 11:55:41;;;;;;;34.00;21.90;;;1.60;1.00;;;;;;6233811;28;20235;-52
2022/12/09 11:58:50;;;;;;;36.27;22.07;;;1.70;1.00;;;;;;6231121;28;20238;-52
2022/12/09 12:01:57;;;;;;;32.37;21.03;;;1.60;1.00;;;;;;6229152;28;20249;-50
2022/12/09 12:05:07;;;;;;;29.97;20.43;;;1.60;1.00;;;;;;6232678;28;20250;-53
2022/12/09 12:08:21;;;;;;;30.77;21.30;;;1.40;1.00;;;;;;6229330;28;20242;-53
2022/12/09 12:11:28;;;;;;;29.37;21.53;;;1.60;1.00;;;;;;6235012;28;20239;-52
2022/12/09 12:14:32;;;;;;;31.97;20.10;;;1.80;1.00;;;;;;6233432;28;20231;-51
2022/12/09 12:17:40;;;;;;;26.80;20.13;;;1.60;1.00;;;;;;6206058;28;20234;-52
2022/12/09 12:20:58;;;;;;;24.00;18.33;;;1.80;1.00;;;;;;6236806;28;20596;-52
2022/12/09 12:24:37;;;;;;;24.87;18.47;;;1.60;1.00;;;;;;6234274;28;20645;-52
2022/12/09 12:27:51;;;;;;;26.67;18.83;;;1.50;1.00;;;;;;6230367;28;20239;-52
2022/12/09 12:31:02;;;;;;;28.27;19.43;;;1.60;1.00;;;;;;6235719;28;20609;-52
2022/12/09 12:34:13;;;;;;;28.20;19.07;;;1.80;1.00;;;;;;6243321;28;20465;-51
2022/12/09 12:37:40;;;;;;;23.70;17.20;;;1.70;1.00;;;;;;6232959;28;20314;-52
2022/12/09 12:40:51;;;;;;;23.57;18.30;;;1.70;1.00;;;;;;6229809;28;20231;-52
2022/12/09 12:47:34;;;;;;;24.63;18.17;;;1.70;1.00;;;;;;6219595;28;20650;-51
2022/12/09 12:50:56;;;;;;;22.97;16.90;;;1.70;1.00;;;;;;6238093;28;20226;-52
2022/12/09 12:54:11;;;;;;;27.03;17.60;;;1.70;1.00;;;;;;6233242;28;20635;-52
2022/12/09 12:57:22;;;;;;;26.10;17.63;;;1.80;1.00;;;;;;6228372;28;20245;-56
2022/12/09 13:00:32;;;;;;;23.30;17.40;;;1.60;1.00;;;;;;6226226;28;20504;-51
2022/12/09 13:03:51;;;;;;;23.30;17.47;;;1.60;1.00;;;;;;6217479;28;20235;-51
2022/12/09 13:07:00;;;;;;;20.77;16.13;;;1.90;1.00;;;;;;6231120;28;20317;-51
2022/12/09 13:10:14;;;;;;;22.13;17.23;;;1.50;1.00;;;;;;6232693;28;20238;-53
2022/12/09 13:13:22;;;;;;;21.23;16.63;;;1.70;1.00;;;;;;6230969;28;20261;-52
2022/12/09 13:16:28;;;;;;;21.67;17.43;;;1.60;1.00;;;;;;6232947;28;20254;-51
2022/12/09 13:19:36;;;;;;;20.43;16.47;;;1.80;1.00;;;;;;6231785;28;20404;-52
2022/12/09 13:22:47;;;;;;;21.93;17.20;;;1.70;1.00;;;;;;6232962;28;20238;-52
2022/12/09 13:26:01;;;;;;;22.17;16.37;;;1.60;1.00;;;;;;6228834;28;20642;-53
2022/12/09 13:29:16;;;;;;;25.13;19.53;;;1.70;1.00;;;;;;6211248;28;20322;-54
2022/12/09 13:32:39;;;;;;;28.83;19.30;;;1.50;1.00;;;;;;6216444;28;20297;-53
2022/12/09 13:35:47;;;;;;;27.57;19.33;;;1.50;1.00;;;;;;6210354;28;20230;-51
2022/12/09 13:38:50;;;;;;;25.27;18.90;;;1.50;1.00;;;;;;6217060;28;21783;-51
2022/12/09 13:45:19;;;;;;;24.37;17.43;;;1.30;1.00;;;;;;6232484;28;20241;-51
2022/12/09 13:48:52;;;;;;;24.23;17.33;;;1.20;1.00;;;;;;6231687;28;20257;-52
2022/12/09 13:51:56;;;;;;;18.83;16.40;;;1.30;1.00;;;;;;6240454;28;20235;-52
2022/12/09 13:54:59;;;;;;;25.20;17.73;;;1.30;1.00;;;;;;6233093;28;20572;-52
2022/12/09 13:58:23;;;;;;;23.40;16.33;;;1.20;1.00;;;;;;6216173;28;20825;-54
2022/12/09 14:01:34;;;;;;;24.73;17.47;;;0.90;1.00;;;;;;6183146;28;20378;-52
2022/12/09 14:04:45;;;;;;;24.27;17.30;;;1.00;1.00;;;;;;6201731;28;20239;-53
2022/12/09 14:07:53;;;;;;;21.60;17.03;;;1.00;1.00;;;;;;6214570;28;20540;-52
2022/12/09 14:10:57;;;;;;;23.47;18.27;;;1.00;1.00;;;;;;6211210;28;20729;-51
2022/12/09 14:14:55;;;;;;;24.10;17.00;;;1.00;1.00;;;;;;6208598;28;20231;-52
2022/12/09 14:18:02;;;;;;;21.80;17.80;;;0.80;1.00;;;;;;6233113;28;20369;-50
2022/12/09 14:21:26;;;;;;;22.90;17.40;;;0.90;1.00;;;;;;6231891;28;20239;-51
2022/12/09 14:24:34;;;;;;;23.23;18.10;;;1.00;1.00;;;;;;6231912;28;20238;-52
2022/12/09 14:27:37;;;;;;;22.67;15.90;;;0.70;1.00;;;;;;6235251;28;20705;-50
2022/12/09 14:30:49;;;;;;;20.23;15.73;;;0.70;1.00;;;;;;6237506;28;20380;-54
2022/12/09 14:33:53;;;;;;;21.37;17.37;;;0.80;1.00;;;;;;6233717;28;20607;-52
2022/12/09 14:37:19;;;;;;;24.00;17.63;;;0.60;1.00;;;;;;6236811;28;20828;-52
2022/12/09 14:40:38;;;;;;;21.47;16.80;;;0.70;1.00;;;;;;6225362;28;20232;-51
2022/12/09 14:43:54;;;;;;;25.97;18.37;;;0.50;1.00;;;;;;6215949;28;20262;-51
2022/12/09 14:47:14;;;;;;;28.83;18.83;;;0.60;1.00;;;;;;6235385;28;20543;-51
2022/12/09 14:50:20;;;;;;;27.37;18.30;;;0.60;1.00;;;;;;6235857;28;20239;-51
2022/12/09 14:53:25;;;;;;;25.40;18.73;;;0.50;1.00;;;;;;6232541;28;20705;-50
2022/12/09 14:56:30;;;;;;;25.70;19.10;;;0.70;1.00;;;;;;6234116;28;20585;-51
2022/12/09 14:59:33;;;;;;;32.83;19.17;;;0.50;1.00;;;;;;6235291;28;20461;-51
2022/12/09 15:02:36;;;;;;;28.80;19.40;;;0.50;1.00;;;;;;6236278;28;20234;-52
2022/12/09 15:05:52;;;;;;;34.17;20.10;;;0.40;1.00;;;;;;6232294;28;20346;-52
2022/12/09 15:08:57;;;;;;;28.97;18.60;;;0.30;1.00;;;;;;6235877;28;20253;-51
2022/12/09 15:12:00;;;;;;;30.47;19.37;;;0.20;1.00;;;;;;6234262;28;20234;-52
2022/12/09 15:15:06;;;;;;;29.13;19.57;;;0.40;1.00;;;;;;6235424;28;20329;-52
2022/12/09 15:18:17;;;;;;;35.10;20.47;;;0.30;1.00;;;;;;6232206;28;20235;-52
2022/12/09 15:21:28;;;;;;;36.00;22.23;;;0.30;1.00;;;;;;6224895;28;20354;-51
2022/12/09 15:24:31;;;;;;;32.20;19.73;;;0.20;1.00;;;;;;6234803;28;20749;-53
2022/12/09 15:27:57;;;;;;;36.10;20.20;;;0.10;1.00;;;;;;6237096;28;20674;-52
2022/12/09 15:31:02;;;;;;;32.83;19.33;;;-0.10;1.00;;;;;;6236066;28;20489;-52
2022/12/09 15:34:11;;;;;;;32.63;18.60;;;0.00;1.00;;;;;;6229740;28;20637;-51
2022/12/09 15:37:29;;;;;;;33.63;20.23;;;-0.10;1.00;;;;;;6228693;28;20374;-51
2022/12/09 15:40:34;;;;;;;31.57;20.77;;;-0.10;1.00;;;;;;6232824;28;20610;-53
2022/12/09 15:43:41;;;;;;;31.37;19.70;;;-0.10;1.00;;;;;;6228496;28;20709;-52
2022/12/09 15:46:46;;;;;;;31.40;19.07;;;0.20;1.00;;;;;;6235281;28;20241;-52
2022/12/09 15:49:56;;;;;;;35.40;20.03;;;0.00;1.00;;;;;;6233945;28;20698;-51
2022/12/09 15:53:05;;;;;;;32.17;19.93;;;0.00;1.00;;;;;;6234232;28;20242;-52
2022/12/09 15:56:13;;;;;;;30.07;19.03;;;0.00;1.00;;;;;;6237711;28;20255;-51
2022/12/09 15:59:23;;;;;;;30.30;19.10;;;0.10;1.00;;;;;;6227177;28;20232;-53
2022/12/09 16:02:28;;;;;;;29.03;19.17;;;-0.10;1.00;;;;;;6239694;28;20226;-51
2022/12/09 16:05:32;;;;;;;29.20;18.97;;;-0.40;1.00;;;;;;6234701;28;20381;-54
2022/12/09 16:08:44;;;;;;;30.23;20.27;;;-0.30;1.00;;;;;;6224830;28;20243;-52
2022/12/09 16:11:49;;;;;;;34.00;21.07;;;0.00;1.00;;;;;;6233447;28;20902;-51
2022/12/09 16:14:52;;;;;;;35.23;20.77;;;-0.20;1.00;;;;;;6235220;28;20389;-51
2022/12/09 16:17:56;;;;;;;33.00;21.63;;;-0.20;1.00;;;;;;6241498;28;20759;-52